Bluffton, Minnesota
Current Conditions -  °F | °C
As of 9:52 AM on Saturday 20 Dec 2014 (Local Time) from KADC Reporting Station
Haze Haze  
Wind Chill: 20°   Ceiling: 600
Heat Index: 28°   Visibility: 2.5mi
Dew Point: 27°   Wind: 9mph
Humidity: 93%   Direction: 180°S
Pressure: 30.05"   Gusts: NA
Location:  46.47°N, 95.23°W
Report Text: KADC 201552Z AUTO 18008KT 2 1/2SM BR OVC006 M02/M03 A3005 RMK AO2
Loading
Personal Weather Stations






























Interactive Weather Map New forecast layout! Learn more

10-Day Weather Forecast

Advertisements
Track Severe Weather on mobile